Archival Weather

Chicago O'Hare International

Chicago, Illinois (KORD)

Report from: Friday, September 23, 2022 10:51 AM CDT
Current time: Sunday, December 4, 2022 7:01 AM CST

Current weather
Weather history
Weather forecast

Temperature14.4°C (57.9°F)
Dew point6.7°C (44.1°F)
Winds 5 kts (2.6 m/s, 5.8 mph) East (100°)
Visibility10 mi. (16.1 km)
Clouds Few clouds 3,000 ft. (914 m)
Few clouds 18,000 ft. (5,486 m)
Scattered clouds 23,000 ft. (7,010 m)
Altimeter30.25 in.Hg (1024 mB)
Relative humidity60 %
Density altitude-304 ft. (-93 m)
Sea-level pressure102.4 kPa (1024 mB, 30.25 in.Hg)
Remarks Automated weather observing station with precipitation discriminator
Flight conditions Visual Meteorological Conditions
Raw dataKORD 231551Z 10005KT 10SM FEW030 FEW180 SCT230 14/07 A3025 RMK AO2 SLP243 T01440067
An error has occurred. This application may no longer respond until reloaded. Reload 🗙